Time;durP1;ratioP1;P1;durP2;ratioP2;P2;SDS_P1;SDS_P2;PMS_P1;PMS_P2;Temp;Humidity;BMP_temperature;BMP_pressure;BME280_temperature;BME280_humidity;BME280_pressure;Samples;Min_cycle;Max_cycle;Signal;HPM_P1;HPM_P2
2023/01/11 00:01:15;;;;;;;;;;;;;;;7.53;100.00;99532.28;5033535;28;20335;-85
2023/01/11 00:03:40;;;;;;;;;;;;;;;7.56;100.00;99532.16;5033102;28;19924;-85
2023/01/11 00:06:07;;;;;;;;;;;;;;;7.59;100.00;99529.41;5033177;28;20283;-85
2023/01/11 00:08:32;;;;;;;;;;;;;;;7.62;100.00;99527.53;5033099;28;19948;-85
2023/01/11 00:10:57;;;;;;;;;;;;;;;7.65;100.00;99521.31;5033010;28;19963;-86
2023/01/11 00:13:22;;;;;;;;;;;;;;;7.68;100.00;99526.47;5031927;28;19917;-85
2023/01/11 00:15:48;;;;;;;;;;;;;;;7.71;100.00;99513.19;5032879;28;19925;-85
2023/01/11 00:18:13;;;;;;;;;;;;;;;7.73;100.00;99519.25;5033081;28;19924;-85
2023/01/11 00:20:39;;;;;;;;;;;;;;;7.77;100.00;99515.59;5032968;28;19917;-89
2023/01/11 00:23:04;;;;;;;;;;;;;;;7.81;100.00;99521.63;5032850;28;19923;-86
2023/01/11 00:25:29;;;;;;;;;;;;;;;7.84;100.00;99508.31;5034408;28;19917;-85
2023/01/11 00:27:55;;;;;;;;;;;;;;;7.86;100.00;99503.00;5035586;28;20012;-84
2023/01/11 00:30:20;;;;;;;;;;;;;;;7.93;100.00;99499.19;5036781;28;20407;-85
2023/01/11 00:32:45;;;;;;;;;;;;;;;7.93;100.00;99500.09;5043941;28;20299;-86
2023/01/11 00:35:10;;;;;;;;;;;;;;;7.95;100.00;99502.66;5056336;28;20396;-85
2023/01/11 00:37:36;;;;;;;;;;;;;;;7.98;100.00;99503.41;5056465;28;19917;-85
2023/01/11 00:40:01;;;;;;;;;;;;;;;8.01;100.00;99505.09;5056604;28;20358;-85
2023/01/11 00:47:59;;;;;;;;;;;;;;;8.05;100.00;99501.41;5056440;28;19955;-89
2023/01/11 08:56:38;;;;;;;;;;;;;;;5.27;100.00;99302.47;5672145;23;19933;-87
2023/01/11 08:59:04;;;;;;;;;;;;;;;5.33;100.00;99300.56;5055889;28;19921;-88
2023/01/11 09:01:29;;;;;;;;;;;;;;;5.28;100.00;99304.19;5056343;28;19917;-89
2023/01/11 09:03:54;;;;;;;;;;;;;;;5.25;100.00;99312.16;5056173;28;20276;-87
2023/01/11 09:06:21;;;;;;;;;;;;;;;5.19;100.00;99301.81;5056227;28;20011;-88
2023/01/11 09:08:46;;;;;;;;;;;;;;;5.23;100.00;99306.09;5056035;28;19963;-87
2023/01/11 09:13:59;;;;;;;;;;;;;;;5.18;100.00;99301.88;5055554;28;19978;-88
2023/01/11 09:16:24;;;;;;;;;;;;;;;5.12;100.00;99321.28;5056170;28;20380;-89
2023/01/11 09:18:49;;;;;;;;;;;;;;;5.13;100.00;99314.28;5037918;28;19971;-87
2023/01/11 09:21:14;;;;;;;;;;;;;;;5.07;100.00;99315.28;5051291;28;19921;-90
2023/01/11 09:23:39;;;;;;;;;;;;;;;5.14;100.00;99326.47;5044433;28;19921;-89
2023/01/11 09:26:05;;;;;;;;;;;;;;;5.11;100.00;99339.72;5045186;28;19919;-90
2023/01/11 09:31:34;;;;;;;;;;;;;;;5.00;100.00;99387.28;5183598;23;19932;-90
2023/01/11 09:34:00;;;;;;;;;;;;;;;4.99;100.00;99396.03;5017814;28;19925;-89
2023/01/11 09:36:26;;;;;;;;;;;;;;;5.05;100.00;99391.50;5035589;28;19932;-88
2023/01/11 09:38:55;;;;;;;;;;;;;;;5.05;100.00;99383.63;5017826;28;19921;-86
2023/01/11 09:41:22;;;;;;;;;;;;;;;4.97;100.00;99380.34;5035568;28;20356;-86
2023/01/11 09:43:54;;;;;;;;;;;;;;;4.95;100.00;99390.03;5039347;28;19928;-85
2023/01/11 09:46:19;;;;;;;;;;;;;;;4.96;100.00;99389.09;5038373;28;20007;-88
2023/01/11 09:48:47;;;;;;;;;;;;;;;4.93;100.00;99377.81;5035911;28;20007;-87
2023/01/11 09:51:15;;;;;;;;;;;;;;;4.94;100.00;99376.94;5038282;28;19921;-88
2023/01/11 09:53:45;;;;;;;;;;;;;;;4.96;100.00;99385.63;5038884;28;19952;-86
2023/01/11 09:56:11;;;;;;;;;;;;;;;4.89;100.00;99383.16;5037067;28;19960;-86
2023/01/11 09:58:49;;;;;;;;;;;;;;;4.88;100.00;99384.06;5040749;28;20000;-88
2023/01/11 10:01:14;;;;;;;;;;;;;;;4.85;100.00;99394.66;5020429;28;20466;-87
2023/01/11 10:03:53;;;;;;;;;;;;;;;4.79;100.00;99394.81;5040280;28;20016;-86
2023/01/11 10:06:30;;;;;;;;;;;;;;;4.80;100.00;99399.13;5035110;28;19921;-86
2023/01/11 10:09:16;;;;;;;;;;;;;;;4.78;100.00;99398.31;5017202;28;19925;-86
2023/01/11 10:11:44;;;;;;;;;;;;;;;4.79;100.00;99394.81;5034916;28;19963;-86
2023/01/11 10:14:12;;;;;;;;;;;;;;;4.71;100.00;99396.78;5035062;28;19921;-86
2023/01/11 10:16:37;;;;;;;;;;;;;;;4.86;100.00;99395.50;5016189;28;19999;-86
2023/01/11 10:19:11;;;;;;;;;;;;;;;4.77;100.00;99395.75;5017094;28;19967;-86
2023/01/11 10:21:41;;;;;;;;;;;;;;;4.76;100.00;99400.13;5017091;28;19917;-86
2023/01/11 10:24:13;;;;;;;;;;;;;;;4.83;100.00;99398.22;5017115;28;19917;-86
2023/01/11 10:26:40;;;;;;;;;;;;;;;4.76;100.00;99389.63;5016804;28;19996;-86
2023/01/11 10:29:21;;;;;;;;;;;;;;;4.76;100.00;99389.63;5016979;28;20349;-85
2023/01/11 10:42:27;;;;;;;;;;;;;;;5.60;100.00;99399.63;5034526;28;19940;-85
2023/01/11 10:45:11;;;;;;;;;;;;;;;5.99;100.00;99399.38;5033055;28;19917;-86
2023/01/11 10:48:00;;;;;;;;;;;;;;;6.21;100.00;99397.84;5034251;28;19917;-85
2023/01/11 10:50:34;;;;;;;;;;;;;;;6.36;100.00;99400.88;5034285;28;19970;-86
2023/01/11 10:52:59;;;;;;;;;;;;;;;6.48;100.00;99411.94;5034097;28;19928;-85
2023/01/11 10:55:27;;;;;;;;;;;;;;;6.58;100.00;99409.88;5034119;28;19917;-85
2023/01/11 10:58:11;;;;;;;;;;;;;;;6.64;100.00;99418.41;5033967;28;19932;-86
2023/01/11 11:00:51;;;;;;;;;;;;;;;6.71;100.00;99419.94;5032819;28;20387;-86
2023/01/11 11:03:23;;;;;;;;;;;;;;;6.80;100.00;99420.56;5016338;28;19963;-85
2023/01/11 11:05:54;;;;;;;;;;;;;;;6.87;100.00;99416.78;5033968;28;19920;-85
2023/01/11 11:08:49;;;;;;;;;;;;;;;6.93;100.00;99407.84;5033864;28;20299;-85
2023/01/11 11:11:20;;;;;;;;;;;;;;;6.99;100.00;99397.06;4979283;28;20008;-85
2023/01/11 11:13:54;;;;;;;;;;;;;;;7.03;100.00;99409.22;5033855;28;19917;-86
2023/01/11 11:16:22;;;;;;;;;;;;;;;7.07;100.00;99422.25;5014793;28;19924;-85
2023/01/11 11:18:51;;;;;;;;;;;;;;;7.12;100.00;99422.09;5033636;28;19917;-85
2023/01/11 11:21:21;;;;;;;;;;;;;;;7.14;100.00;99420.25;5016032;28;19917;-87
2023/01/11 11:23:50;;;;;;;;;;;;;;;7.19;100.00;99414.84;5015911;28;19917;-85
2023/01/11 11:26:15;;;;;;;;;;;;;;;7.22;100.00;99422.63;5016013;28;19917;-86
2023/01/11 11:28:57;;;;;;;;;;;;;;;7.24;100.00;99420.78;5015911;28;19924;-85
2023/01/11 11:31:22;;;;;;;;;;;;;;;7.27;100.00;99420.69;5032051;28;19928;-85
2023/01/11 11:33:47;;;;;;;;;;;;;;;7.30;100.00;99425.84;5033646;28;19921;-85
2023/01/11 11:36:13;;;;;;;;;;;;;;;7.33;100.00;99420.47;5015773;28;20015;-85
2023/01/11 11:38:40;;;;;;;;;;;;;;;7.35;100.00;99429.19;5015963;28;19928;-86
2023/01/11 11:41:05;;;;;;;;;;;;;;;7.41;100.00;99436.03;5034533;28;20279;-87
2023/01/11 11:43:31;;;;;;;;;;;;;;;7.43;100.00;99432.41;5033515;28;19917;-86
2023/01/11 11:45:58;;;;;;;;;;;;;;;7.44;100.00;99431.50;5014097;28;19917;-86
2023/01/11 11:48:25;;;;;;;;;;;;;;;7.46;100.00;99432.28;5017578;28;19975;-85
2023/01/11 11:50:51;;;;;;;;;;;;;;;7.47;100.00;99433.19;5018883;28;19920;-87
2023/01/11 11:53:24;;;;;;;;;;;;;;;7.51;100.00;99439.19;5040847;28;20399;-85
2023/01/11 11:55:50;;;;;;;;;;;;;;;7.54;100.00;99432.03;5053161;28;19927;-85
2023/01/11 11:58:17;;;;;;;;;;;;;;;7.56;100.00;99431.97;5021071;28;19925;-84
2023/01/11 12:00:48;;;;;;;;;;;;;;;7.58;100.00;99444.19;5014571;28;19921;-86
2023/01/11 12:03:16;;;;;;;;;;;;;;;7.60;100.00;99433.59;5015446;28;20017;-86
2023/01/11 12:05:59;;;;;;;;;;;;;;;7.62;100.00;99435.25;5020982;28;19931;-88
2023/01/11 12:08:25;;;;;;;;;;;;;;;7.65;100.00;99436.91;5035023;28;19920;-85
2023/01/11 12:10:52;;;;;;;;;;;;;;;7.67;100.00;99426.31;5052933;28;20015;-86
2023/01/11 12:13:31;;;;;;;;;;;;;;;7.67;100.00;99423.69;5052798;28;19917;-88
2023/01/11 12:15:59;;;;;;;;;;;;;;;7.69;100.00;99438.53;5051563;28;19970;-87
2023/01/11 12:18:27;;;;;;;;;;;;;;;7.73;100.00;99434.00;5035177;28;19967;-86
2023/01/11 12:20:53;;;;;;;;;;;;;;;7.75;100.00;99440.06;5035479;28;19917;-87
2023/01/11 12:23:23;;;;;;;;;;;;;;;7.74;100.00;99433.94;5038858;28;19917;-88
2023/01/11 12:26:10;;;;;;;;;;;;;;;7.76;100.00;99442.66;5032061;28;20019;-86
2023/01/11 12:28:54;;;;;;;;;;;;;;;7.79;100.00;99439.91;5040854;28;20153;-86
2023/01/11 12:31:38;;;;;;;;;;;;;;;7.81;100.00;99439.84;5022587;28;20016;-85
2023/01/11 12:34:18;;;;;;;;;;;;;;;7.85;100.00;99443.22;5036915;28;20011;-86
2023/01/11 12:37:03;;;;;;;;;;;;;;;7.86;100.00;99440.53;5030773;28;20257;-85
2023/01/11 12:39:48;;;;;;;;;;;;;;;7.88;100.00;99443.13;5043579;28;20360;-86
2023/01/11 12:42:32;;;;;;;;;;;;;;;7.92;100.00;99437.66;4991773;28;19925;-91
2023/01/11 12:45:18;;;;;;;;;;;;;;;7.92;100.00;99445.59;5051501;28;19916;-87
2023/01/11 12:47:50;;;;;;;;;;;;;;;7.94;100.00;99440.25;5036023;28;20301;-88
2023/01/11 12:50:19;;;;;;;;;;;;;;;7.94;100.00;99440.25;5031220;28;19913;-86
2023/01/11 12:52:50;;;;;;;;;;;;;;;7.96;100.00;99449.84;5035379;28;19921;-85
2023/01/11 12:55:24;;;;;;;;;;;;;;;7.96;100.00;99456.88;5052758;28;20008;-85
2023/01/11 12:58:04;;;;;;;;;;;;;;;7.98;100.00;99460.34;5056222;28;20403;-84
2023/01/11 13:00:35;;;;;;;;;;;;;;;7.99;100.00;99457.66;5045836;28;20033;-87
2023/01/11 13:03:00;;;;;;;;;;;;;;;8.04;100.00;99459.22;5034203;28;19921;-85
2023/01/11 13:05:36;;;;;;;;;;;;;;;8.04;100.00;99468.03;5055978;28;20360;-85
2023/01/11 13:08:02;;;;;;;;;;;;;;;8.06;100.00;99458.28;5056084;28;19916;-85
2023/01/11 13:10:37;;;;;;;;;;;;;;;8.06;100.00;99465.31;5031410;28;19923;-88
2023/01/11 13:13:11;;;;;;;;;;;;;;;8.09;100.00;99471.34;5018157;28;20280;-86
2023/01/11 13:15:40;;;;;;;;;;;;;;;8.13;100.00;99475.56;5036446;28;20383;-85
2023/01/11 13:18:06;;;;;;;;;;;;;;;8.15;100.00;99486.06;5055881;28;19932;-84
2023/01/11 13:20:36;;;;;;;;;;;;;;;8.16;100.00;99493.94;5055889;28;19916;-85
2023/01/11 13:23:06;;;;;;;;;;;;;;;8.20;100.00;99494.72;5037889;28;19917;-84
2023/01/11 13:25:35;;;;;;;;;;;;;;;8.20;100.00;99502.63;5037939;28;19917;-86
2023/01/11 13:28:02;;;;;;;;;;;;;;;8.22;100.00;99502.53;5055528;28;19951;-86
2023/01/11 13:30:28;;;;;;;;;;;;;;;8.23;100.00;99496.34;5054306;28;19917;-86
2023/01/11 13:33:10;;;;;;;;;;;;;;;8.24;100.00;99508.63;5036736;28;19971;-85
2023/01/11 13:35:41;;;;;;;;;;;;;;;8.24;100.00;99511.28;5037825;28;19916;-86
2023/01/11 13:38:16;;;;;;;;;;;;;;;8.25;100.00;99519.16;5055649;28;19917;-86
2023/01/11 13:40:44;;;;;;;;;;;;;;;8.27;100.00;99522.56;5037504;28;20012;-86
2023/01/11 13:43:15;;;;;;;;;;;;;;;8.30;100.00;99518.97;5037525;28;20442;-85
2023/01/11 13:45:46;;;;;;;;;;;;;;;8.30;100.00;99516.34;5054115;28;19959;-85
2023/01/11 13:48:25;;;;;;;;;;;;;;;8.31;100.00;99516.28;5055296;28;19916;-88
2023/01/11 13:50:55;;;;;;;;;;;;;;;8.33;100.00;99534.69;5055304;28;19917;-88
2023/01/11 13:53:27;;;;;;;;;;;;;;;8.33;100.00;99525.00;5037016;28;20383;-85
2023/01/11 13:56:14;;;;;;;;;;;;;;;8.36;100.00;99530.16;5037468;28;19917;-88
2023/01/11 13:58:48;;;;;;;;;;;;;;;8.39;100.00;99538.88;5055189;28;20057;-89
2023/01/11 14:01:16;;;;;;;;;;;;;;;8.37;100.00;99550.34;5053790;28;19917;-90
2023/01/11 14:03:49;;;;;;;;;;;;;;;8.40;100.00;99546.72;5055292;28;20043;-86
2023/01/11 14:06:20;;;;;;;;;;;;;;;8.39;100.00;99545.00;5055040;28;19986;-85
2023/01/11 14:08:59;;;;;;;;;;;;;;;8.41;100.00;99559.03;5055047;28;19923;-84
2023/01/11 14:11:24;;;;;;;;;;;;;;;8.41;100.00;99559.03;5054943;28;19920;-86
2023/01/11 14:14:16;;;;;;;;;;;;;;;8.42;100.00;99546.69;5054846;28;19970;-85
2023/01/11 14:17:01;;;;;;;;;;;;;;;8.44;100.00;99565.97;5053629;28;19956;-85
2023/01/11 14:19:37;;;;;;;;;;;;;;;8.45;100.00;99580.91;5054824;28;19917;-85
2023/01/11 14:22:10;;;;;;;;;;;;;;;8.45;100.00;99579.13;5054748;28;19917;-86
2023/01/11 14:24:39;;;;;;;;;;;;;;;8.46;100.00;99583.50;5054700;28;20269;-92
2023/01/11 14:27:23;;;;;;;;;;;;;;;8.46;100.00;99583.50;5054663;28;20364;-87
2023/01/11 14:30:04;;;;;;;;;;;;;;;8.47;100.00;99585.25;5053255;28;20290;-85
2023/01/11 14:32:29;;;;;;;;;;;;;;;8.48;100.00;99592.22;5054408;28;19921;-85
2023/01/11 14:34:57;;;;;;;;;;;;;;;8.51;100.00;99592.09;5054324;28;19939;-85
2023/01/11 14:37:29;;;;;;;;;;;;;;;8.51;100.00;99597.38;5054360;28;19920;-85
2023/01/11 14:40:12;;;;;;;;;;;;;;;8.52;100.00;99601.75;5054260;28;20063;-88
2023/01/11 14:42:37;;;;;;;;;;;;;;;8.53;100.00;99600.81;5054464;28;19918;-86
2023/01/11 14:45:15;;;;;;;;;;;;;;;8.54;100.00;99610.47;5052163;28;20194;-85
2023/01/11 14:47:49;;;;;;;;;;;;;;;8.56;100.00;99609.56;5054247;28;20367;-84
2023/01/11 14:50:20;;;;;;;;;;;;;;;8.56;100.00;99609.56;5054067;28;19916;-84
2023/01/11 14:52:46;;;;;;;;;;;;;;;8.54;100.00;99610.47;5054116;28;19916;-84
2023/01/11 14:55:34;;;;;;;;;;;;;;;8.56;100.00;99614.84;5053956;28;19917;-85
2023/01/11 14:58:00;;;;;;;;;;;;;;;8.56;100.00;99620.13;5053969;28;20294;-86
2023/01/11 15:00:25;;;;;;;;;;;;;;;8.38;100.00;99622.50;5052500;28;19917;-84
2023/01/11 15:02:52;;;;;;;;;;;;;;;7.12;100.00;99626.75;5053980;28;19963;-88
2023/01/11 15:05:32;;;;;;;;;;;;;;;6.75;100.00;99625.22;5053724;28;20372;-88
2023/01/11 15:08:24;;;;;;;;;;;;;;;6.47;100.00;99624.25;5053848;28;20435;-87
2023/01/11 15:10:56;;;;;;;;;;;;;;;6.35;100.00;99637.75;5050757;28;19921;-87
2023/01/11 15:13:27;;;;;;;;;;;;;;;6.16;100.00;99629.53;5053527;28;19917;-88
2023/01/11 15:18:53;;;;;;;;;;;;;;;6.05;100.00;99642.97;5053956;28;19923;-88
2023/01/11 15:21:23;;;;;;;;;;;;;;;5.92;100.00;99642.41;5053574;28;19921;-87
2023/01/11 15:23:53;;;;;;;;;;;;;;;5.86;100.00;99645.19;5053497;28;19927;-88
2023/01/11 15:26:19;;;;;;;;;;;;;;;5.75;100.00;99649.84;5053450;28;19922;-88
2023/01/11 15:28:50;;;;;;;;;;;;;;;5.72;100.00;99649.94;5053569;28;19924;-88
2023/01/11 15:31:48;;;;;;;;;;;;;;;5.71;100.00;99658.72;5034096;28;20368;-90
2023/01/11 15:34:27;;;;;;;;;;;;;;;5.59;100.00;99667.78;5019919;28;20409;-90
2023/01/11 15:37:02;;;;;;;;;;;;;;;5.53;100.00;99668.78;5053681;28;20316;-90
2023/01/11 15:39:27;;;;;;;;;;;;;;;5.49;100.00;99672.41;5053254;28;20435;-88
2023/01/11 15:42:05;;;;;;;;;;;;;;;5.48;100.00;99670.66;5053364;28;20003;-90
2023/01/11 15:44:39;;;;;;;;;;;;;;;5.41;100.00;99676.97;5051966;28;19960;-90
2023/01/11 15:47:04;;;;;;;;;;;;;;;5.33;100.00;99676.25;5053459;28;20459;-89
2023/01/11 15:49:42;;;;;;;;;;;;;;;5.30;100.00;99681.59;5053102;28;20011;-89
2023/01/11 15:52:23;;;;;;;;;;;;;;;5.34;100.00;99685.88;5053162;28;19921;-94
2023/01/11 15:54:57;;;;;;;;;;;;;;;5.20;100.00;99696.69;5035266;28;19920;-88
2023/01/11 15:57:41;;;;;;;;;;;;;;;5.20;100.00;99688.81;5034704;28;19924;-89
2023/01/11 16:00:26;;;;;;;;;;;;;;;5.20;100.00;99694.94;5033999;28;19916;-86
2023/01/11 16:03:03;;;;;;;;;;;;;;;5.07;100.00;99694.38;5035324;28;19924;-90
2023/01/11 16:05:31;;;;;;;;;;;;;;;5.07;100.00;99696.09;5053072;28;20296;-87
2023/01/11 16:07:59;;;;;;;;;;;;;;;5.12;100.00;99704.72;5035236;28;20356;-88
2023/01/11 16:10:43;;;;;;;;;;;;;;;5.07;100.00;99704.88;5053034;28;19917;-89
2023/01/11 16:13:26;;;;;;;;;;;;;;;4.96;100.00;99706.81;5035036;28;19963;-88
2023/01/11 16:16:10;;;;;;;;;;;;;;;5.08;100.00;99717.09;5033865;28;20369;-89
2023/01/11 16:18:39;;;;;;;;;;;;;;;4.96;100.00;99712.09;5053510;28;20371;-89
2023/01/11 16:21:11;;;;;;;;;;;;;;;4.97;100.00;99723.47;5053447;28;19924;-87
2023/01/11 16:23:37;;;;;;;;;;;;;;;4.94;100.00;99729.63;5053203;28;19924;-86
2023/01/11 16:26:04;;;;;;;;;;;;;;;4.93;100.00;99733.19;5047912;28;19949;-88
2023/01/11 16:28:29;;;;;;;;;;;;;;;4.91;100.00;99734.94;5022341;28;20380;-89
2023/01/11 16:30:57;;;;;;;;;;;;;;;4.90;100.00;99744.59;5045639;28;19925;-90
2023/01/11 16:33:25;;;;;;;;;;;;;;;4.88;100.00;99737.63;5041327;28;19921;-89
2023/01/11 16:36:02;;;;;;;;;;;;;;;4.83;100.00;99758.72;5037191;28;19921;-87
2023/01/11 16:38:27;;;;;;;;;;;;;;;4.72;100.00;99763.31;5032824;28;19967;-88
2023/01/11 16:40:52;;;;;;;;;;;;;;;4.72;100.00;99772.09;5044884;28;19921;-91
2023/01/11 16:43:25;;;;;;;;;;;;;;;4.80;100.00;99764.03;5044981;28;19995;-87
2023/01/11 16:45:52;;;;;;;;;;;;;;;4.93;100.00;99769.94;5023111;28;19924;-88
2023/01/11 16:48:21;;;;;;;;;;;;;;;4.90;100.00;99764.75;5035448;28;19982;-88
2023/01/11 16:50:59;;;;;;;;;;;;;;;4.80;100.00;99769.28;5040756;28;19990;-86
2023/01/11 16:53:25;;;;;;;;;;;;;;;4.84;100.00;99776.22;5038842;28;19928;-88
2023/01/11 16:56:04;;;;;;;;;;;;;;;5.53;100.00;99779.16;5041991;28;20433;-92
2023/01/11 16:58:30;;;;;;;;;;;;;;;5.96;100.00;99769.41;5032807;28;19971;-86
2023/01/11 17:00:57;;;;;;;;;;;;;;;6.15;100.00;99768.09;5041623;28;20359;-84
2023/01/11 17:03:24;;;;;;;;;;;;;;;6.29;100.00;99765.13;5040120;28;19928;-86
2023/01/11 17:05:59;;;;;;;;;;;;;;;6.47;100.00;99770.81;5026956;28;20023;-89
2023/01/11 17:08:28;;;;;;;;;;;;;;;6.58;100.00;99774.03;5039964;28;19975;-88
2023/01/11 17:10:59;;;;;;;;;;;;;;;6.65;100.00;99770.34;5020544;28;19927;-89
2023/01/11 17:13:53;;;;;;;;;;;;;;;6.72;100.00;99781.56;5045314;28;19929;-89
2023/01/11 17:16:26;;;;;;;;;;;;;;;6.80;100.00;99795.38;5025507;28;20408;-90
2023/01/11 17:18:53;;;;;;;;;;;;;;;6.86;100.00;99799.59;5036259;28;19917;-92
2023/01/11 17:21:20;;;;;;;;;;;;;;;6.94;100.00;99799.41;5027957;28;19940;-88
2023/01/11 17:23:47;;;;;;;;;;;;;;;6.96;100.00;99803.72;5016394;28;20289;-88
2023/01/11 17:26:18;;;;;;;;;;;;;;;7.00;100.00;99800.06;4998892;28;20423;-89
2023/01/11 17:28:45;;;;;;;;;;;;;;;7.05;100.00;99806.09;4998537;28;19918;-87
2023/01/11 17:31:17;;;;;;;;;;;;;;;7.11;100.00;99820.00;5014922;28;19954;-88
2023/01/11 17:33:43;;;;;;;;;;;;;;;7.13;100.00;99824.31;5025116;28;20291;-87
2023/01/11 17:36:08;;;;;;;;;;;;;;;7.16;100.00;99820.75;5034962;28;19925;-84
2023/01/11 17:38:34;;;;;;;;;;;;;;;7.20;100.00;99830.31;5013503;28;19928;-85
2023/01/11 17:41:01;;;;;;;;;;;;;;;7.22;100.00;99817.94;5002924;28;20059;-87
2023/01/11 17:46:24;;;;;;;;;;;;;;;7.27;100.00;99829.19;5019504;28;19929;-88
2023/01/11 17:48:54;;;;;;;;;;;;;;;7.29;100.00;99840.56;5015925;28;19921;-89
2023/01/11 17:51:23;;;;;;;;;;;;;;;7.33;100.00;99846.63;5016224;28;19922;-89
2023/01/11 17:53:49;;;;;;;;;;;;;;;7.33;100.00;99842.22;5025481;28;19929;-85
2023/01/11 17:56:34;;;;;;;;;;;;;;;7.36;100.00;99844.75;5035576;28;19963;-86
2023/01/11 17:59:18;;;;;;;;;;;;;;;7.39;100.00;99857.84;5029490;28;19922;-89
2023/01/11 18:01:48;;;;;;;;;;;;;;;7.42;100.00;99855.13;5024109;28;20388;-87
2023/01/11 18:04:16;;;;;;;;;;;;;;;7.44;100.00;99853.31;5024929;28;19925;-87
2023/01/11 18:06:43;;;;;;;;;;;;;;;7.49;100.00;99857.59;5006633;28;19975;-89
2023/01/11 18:09:28;;;;;;;;;;;;;;;7.48;100.00;99861.13;5026314;28;19925;-89
2023/01/11 18:12:03;;;;;;;;;;;;;;;7.51;100.00;99882.13;5033207;28;19968;-88
2023/01/11 18:14:30;;;;;;;;;;;;;;;7.54;100.00;99887.31;5033010;28;19925;-91
2023/01/11 18:17:00;;;;;;;;;;;;;;;7.55;100.00;99892.56;5017973;28;19921;-88
2023/01/11 18:19:33;;;;;;;;;;;;;;;7.56;100.00;99891.66;5014806;28;20319;-85
2023/01/11 18:21:59;;;;;;;;;;;;;;;7.59;100.00;99896.81;5015169;28;19921;-88
2023/01/11 18:24:29;;;;;;;;;;;;;;;7.61;100.00;99888.84;4999840;28;19945;-89
2023/01/11 18:27:04;;;;;;;;;;;;;;;7.63;100.00;99881.78;5015230;28;19917;-92
2023/01/11 18:29:36;;;;;;;;;;;;;;;7.66;100.00;99886.09;5014027;28;19923;-92
2023/01/11 18:32:01;;;;;;;;;;;;;;;7.67;100.00;99883.41;5026944;28;19928;-89
2023/01/11 18:34:26;;;;;;;;;;;;;;;7.69;100.00;99881.63;5011930;28;19922;-89
2023/01/11 18:36:58;;;;;;;;;;;;;;;7.72;100.00;99883.28;5014745;28;20395;-89
2023/01/11 18:39:24;;;;;;;;;;;;;;;7.75;100.00;99888.47;5002410;28;19917;-88
2023/01/11 18:42:07;;;;;;;;;;;;;;;7.76;100.00;99890.19;5015369;28;19921;-84
2023/01/11 18:44:36;;;;;;;;;;;;;;;7.79;100.00;99890.13;5020264;28;19924;-86
2023/01/11 18:47:10;;;;;;;;;;;;;;;7.81;100.00;99891.78;5017717;28;19926;-84
2023/01/11 18:49:35;;;;;;;;;;;;;;;7.82;100.00;99893.50;5014356;28;19920;-83
2023/01/11 18:52:00;;;;;;;;;;;;;;;7.86;100.00;99890.78;4996773;28;19918;-91
2023/01/11 18:54:26;;;;;;;;;;;;;;;7.87;100.00;99892.53;5029035;28;20012;-85
2023/01/11 18:56:51;;;;;;;;;;;;;;;7.89;100.00;99890.69;5002482;28;19928;-83
2023/01/11 18:59:16;;;;;;;;;;;;;;;7.92;100.00;99882.69;4996954;28;19917;-91
2023/01/11 19:01:42;;;;;;;;;;;;;;;7.93;100.00;99885.28;5014187;28;19967;-93
2023/01/11 19:04:09;;;;;;;;;;;;;;;7.96;100.00;99886.94;5017141;28;20285;-87
2023/01/11 19:06:34;;;;;;;;;;;;;;;7.97;100.00;99896.59;5014247;28;19918;-89
2023/01/11 19:08:59;;;;;;;;;;;;;;;7.98;100.00;99903.63;4996537;28;20415;-85
2023/01/11 19:11:27;;;;;;;;;;;;;;;8.00;100.00;99901.78;4998149;28;20460;-85
2023/01/11 19:13:52;;;;;;;;;;;;;;;8.04;100.00;99908.72;4996398;28;20020;-86
2023/01/11 19:16:18;;;;;;;;;;;;;;;8.06;100.00;99911.28;5011968;28;20101;-87
2023/01/11 19:18:44;;;;;;;;;;;;;;;8.07;100.00;99915.66;4995958;28;19925;-87
2023/01/11 19:21:12;;;;;;;;;;;;;;;8.07;100.00;99924.44;5001926;28;19921;-87
2023/01/11 19:23:38;;;;;;;;;;;;;;;8.09;100.00;99925.25;5023481;28;19929;-87
2023/01/11 19:26:03;;;;;;;;;;;;;;;8.10;100.00;99934.88;4995983;28;19921;-86
2023/01/11 19:28:29;;;;;;;;;;;;;;;8.10;100.00;99934.88;4996217;28;19921;-86
2023/01/11 19:30:54;;;;;;;;;;;;;;;8.12;100.00;99935.72;5016920;28;20321;-85
2023/01/11 19:33:19;;;;;;;;;;;;;;;8.15;100.00;99933.00;5013558;28;20016;-89
2023/01/11 19:35:48;;;;;;;;;;;;;;;8.16;100.00;99923.28;5003589;28;19922;-87
2023/01/11 19:38:16;;;;;;;;;;;;;;;8.18;100.00;99932.91;5009333;28;19921;-86
2023/01/11 19:40:42;;;;;;;;;;;;;;;8.19;100.00;99925.84;5009218;28;20383;-86
2023/01/11 19:43:07;;;;;;;;;;;;;;;8.20;100.00;99927.59;5024291;28;19968;-85
2023/01/11 19:45:32;;;;;;;;;;;;;;;8.21;100.00;99916.09;5016414;28;20013;-86
2023/01/11 19:47:58;;;;;;;;;;;;;;;8.24;100.00;99925.72;4995732;28;20028;-87
2023/01/11 19:50:23;;;;;;;;;;;;;;;8.24;100.00;99915.16;4995831;28;19976;-86
2023/01/11 19:52:48;;;;;;;;;;;;;;;8.25;100.00;99917.75;4995787;28;19926;-86
2023/01/11 19:55:13;;;;;;;;;;;;;;;8.27;100.00;99904.50;5017045;28;19963;-88
2023/01/11 19:57:39;;;;;;;;;;;;;;;8.28;100.00;99912.38;5031701;28;19922;-86
2023/01/11 20:00:04;;;;;;;;;;;;;;;8.29;100.00;99908.78;5012267;28;19918;-85
2023/01/11 20:02:30;;;;;;;;;;;;;;;8.30;100.00;99910.53;5004950;28;19917;-85
2023/01/11 20:04:55;;;;;;;;;;;;;;;8.31;100.00;99909.63;5015414;28;19964;-87
2023/01/11 20:07:21;;;;;;;;;;;;;;;8.33;100.00;99914.88;5014944;28;20415;-90
2023/01/11 20:09:46;;;;;;;;;;;;;;;8.33;100.00;99904.31;5009378;28;19921;-85
2023/01/11 20:12:14;;;;;;;;;;;;;;;8.34;100.00;99896.34;5031545;28;20383;-85
2023/01/11 20:14:39;;;;;;;;;;;;;;;8.35;100.00;99889.28;5031408;28;20296;-88
2023/01/11 20:17:05;;;;;;;;;;;;;;;8.35;100.00;99887.47;5015121;28;19921;-89
2023/01/11 20:19:30;;;;;;;;;;;;;;;8.36;100.00;99894.50;5015489;28;19924;-90
2023/01/11 20:21:55;;;;;;;;;;;;;;;8.36;100.00;99897.13;5033039;28;19917;-89
2023/01/11 20:24:27;;;;;;;;;;;;;;;8.37;100.00;99901.50;5015407;28;20446;-87
2023/01/11 20:26:52;;;;;;;;;;;;;;;8.39;100.00;99901.44;5015219;28;19917;-87
2023/01/11 20:29:17;;;;;;;;;;;;;;;8.40;100.00;99905.81;5013771;28;19924;-86
2023/01/11 20:31:42;;;;;;;;;;;;;;;8.40;100.00;99908.47;5011696;28;19921;-85
2023/01/11 20:34:09;;;;;;;;;;;;;;;8.41;100.00;99906.66;5013148;28;19927;-87
2023/01/11 20:36:34;;;;;;;;;;;;;;;8.42;100.00;99903.97;4995667;28;19928;-88
2023/01/11 20:39:00;;;;;;;;;;;;;;;8.43;100.00;99900.47;5012967;28;19917;-86
2023/01/11 20:44:09;;;;;;;;;;;;;;;8.44;100.00;99902.22;5018516;28;19928;-85
2023/01/11 20:46:36;;;;;;;;;;;;;;;8.45;100.00;99913.63;5017819;28;19917;-85
2023/01/11 20:49:01;;;;;;;;;;;;;;;8.48;100.00;99913.53;5036526;28;19979;-85
2023/01/11 20:51:26;;;;;;;;;;;;;;;8.46;100.00;99916.22;5004186;28;19917;-84
2023/01/11 20:53:52;;;;;;;;;;;;;;;8.45;100.00;99897.78;5015779;28;19922;-84
2023/01/11 20:56:17;;;;;;;;;;;;;;;8.45;100.00;99903.91;4999653;28;19921;-84
2023/01/11 20:58:45;;;;;;;;;;;;;;;8.47;100.00;99909.16;5007539;28;19971;-84
2023/01/11 21:01:11;;;;;;;;;;;;;;;8.47;100.00;99902.13;5015730;28;20028;-84
2023/01/11 21:03:36;;;;;;;;;;;;;;;8.48;100.00;99898.53;5008012;28;20447;-85
2023/01/11 21:06:02;;;;;;;;;;;;;;;8.48;100.00;99893.25;5017127;28;19966;-84
2023/01/11 21:08:28;;;;;;;;;;;;;;;8.50;100.00;99894.09;5016483;28;19929;-83
2023/01/11 21:10:53;;;;;;;;;;;;;;;8.50;100.00;99894.09;4995303;28;19925;-89
2023/01/11 21:13:18;;;;;;;;;;;;;;;8.50;100.00;99891.47;5009253;28;19925;-91
2023/01/11 21:15:43;;;;;;;;;;;;;;;8.51;100.00;99885.25;5021951;28;20385;-90
2023/01/11 21:18:08;;;;;;;;;;;;;;;8.51;100.00;99885.25;5003097;28;19956;-92
2023/01/11 21:20:34;;;;;;;;;;;;;;;8.53;100.00;99885.19;5010577;28;19921;-93
2023/01/11 21:22:59;;;;;;;;;;;;;;;8.52;100.00;99884.34;5015967;28;19921;-91
2023/01/11 21:25:24;;;;;;;;;;;;;;;7.61;100.00;99886.22;5001839;28;19922;-93
2023/01/11 21:27:50;;;;;;;;;;;;;;;6.80;100.00;99889.34;5001460;28;19921;-92
2023/01/11 21:30:15;;;;;;;;;;;;;;;6.53;100.00;99881.22;5014402;28;19921;-94
2023/01/11 21:32:40;;;;;;;;;;;;;;;6.33;100.00;99890.47;4998327;28;20385;-93
2023/01/11 21:35:06;;;;;;;;;;;;;;;6.12;100.00;99875.19;5016017;28;20020;-91
2023/01/11 21:37:31;;;;;;;;;;;;;;;6.06;100.00;99883.22;5015442;28;19959;-91
2023/01/11 21:39:56;;;;;;;;;;;;;;;6.12;100.00;99883.06;5028852;28;19975;-88